sensor_id;sensor_type;location;lat;lon;timestamp;temperature;humidity
3792;DHT22;1911;53.768;11.474;2023-05-14T00:01:24;12.30;1.00
3792;DHT22;1911;53.768;11.474;2023-05-14T00:03:49;12.30;1.00
3792;DHT22;1911;53.768;11.474;2023-05-14T00:06:15;12.30;1.00
3792;DHT22;1911;53.768;11.474;2023-05-14T00:08:41;12.30;1.00
3792;DHT22;1911;53.768;11.474;2023-05-14T00:11:06;12.20;1.00
3792;DHT22;1911;53.768;11.474;2023-05-14T00:13:33;12.20;1.00
3792;DHT22;1911;53.768;11.474;2023-05-14T00:15:59;12.10;1.00
3792;DHT22;1911;53.768;11.474;2023-05-14T00:18:24;12.10;1.00
3792;DHT22;1911;53.768;11.474;2023-05-14T00:20:50;12.00;1.00
3792;DHT22;1911;53.768;11.474;2023-05-14T00:23:22;12.00;16.20
3792;DHT22;1911;53.768;11.474;2023-05-14T00:25:48;12.00;20.20
3792;DHT22;1911;53.768;11.474;2023-05-14T00:28:14;12.00;22.80
3792;DHT22;1911;53.768;11.474;2023-05-14T00:30:39;12.00;37.30
3792;DHT22;1911;53.768;11.474;2023-05-14T00:33:05;12.00;26.30
3792;DHT22;1911;53.768;11.474;2023-05-14T00:35:31;11.90;85.90
3792;DHT22;1911;53.768;11.474;2023-05-14T00:38:00;11.80;99.90
3792;DHT22;1911;53.768;11.474;2023-05-14T00:40:26;11.80;99.90
3792;DHT22;1911;53.768;11.474;2023-05-14T00:42:53;11.70;99.90
3792;DHT22;1911;53.768;11.474;2023-05-14T00:45:19;11.50;99.90
3792;DHT22;1911;53.768;11.474;2023-05-14T00:47:45;11.50;99.90
3792;DHT22;1911;53.768;11.474;2023-05-14T00:50:11;11.50;99.90
3792;DHT22;1911;53.768;11.474;2023-05-14T00:52:38;11.60;99.90
3792;DHT22;1911;53.768;11.474;2023-05-14T00:55:05;11.60;99.90
3792;DHT22;1911;53.768;11.474;2023-05-14T00:57:34;11.50;99.90
3792;DHT22;1911;53.768;11.474;2023-05-14T01:00:04;11.50;1.00
3792;DHT22;1911;53.768;11.474;2023-05-14T01:02:32;11.50;1.00
3792;DHT22;1911;53.768;11.474;2023-05-14T01:04:57;11.40;1.00
3792;DHT22;1911;53.768;11.474;2023-05-14T01:10:28;11.40;1.00
3792;DHT22;1911;53.768;11.474;2023-05-14T01:15:32;11.30;1.00
3792;DHT22;1911;53.768;11.474;2023-05-14T01:18:07;11.40;1.00
3792;DHT22;1911;53.768;11.474;2023-05-14T01:20:33;11.30;1.00
3792;DHT22;1911;53.768;11.474;2023-05-14T01:22:59;11.30;1.00
3792;DHT22;1911;53.768;11.474;2023-05-14T01:25:25;11.20;1.00
3792;DHT22;1911;53.768;11.474;2023-05-14T01:30:42;11.10;1.00
3792;DHT22;1911;53.768;11.474;2023-05-14T01:33:13;11.20;1.00
3792;DHT22;1911;53.768;11.474;2023-05-14T01:35:39;11.10;1.00
3792;DHT22;1911;53.768;11.474;2023-05-14T01:38:10;11.10;1.00
3792;DHT22;1911;53.768;11.474;2023-05-14T01:40:37;11.10;1.00
3792;DHT22;1911;53.768;11.474;2023-05-14T01:43:04;11.00;1.00
3792;DHT22;1911;53.768;11.474;2023-05-14T01:45:30;11.00;1.00
3792;DHT22;1911;53.768;11.474;2023-05-14T01:47:57;11.00;1.00
3792;DHT22;1911;53.768;11.474;2023-05-14T01:50:23;10.90;1.00
3792;DHT22;1911;53.768;11.474;2023-05-14T01:52:48;10.90;1.00
3792;DHT22;1911;53.768;11.474;2023-05-14T01:55:15;10.80;1.00
3792;DHT22;1911;53.768;11.474;2023-05-14T01:57:42;10.80;1.00
3792;DHT22;1911;53.768;11.474;2023-05-14T02:00:08;10.80;1.00
3792;DHT22;1911;53.768;11.474;2023-05-14T02:02:34;10.80;1.00
3792;DHT22;1911;53.768;11.474;2023-05-14T02:04:59;10.80;1.00
3792;DHT22;1911;53.768;11.474;2023-05-14T02:07:25;10.70;1.00
3792;DHT22;1911;53.768;11.474;2023-05-14T02:09:51;10.60;1.00
3792;DHT22;1911;53.768;11.474;2023-05-14T02:12:16;10.60;1.00
3792;DHT22;1911;53.768;11.474;2023-05-14T02:14:42;10.50;1.00
3792;DHT22;1911;53.768;11.474;2023-05-14T02:17:07;10.60;1.00
3792;DHT22;1911;53.768;11.474;2023-05-14T02:19:33;10.60;1.00
3792;DHT22;1911;53.768;11.474;2023-05-14T02:21:59;10.60;1.00
3792;DHT22;1911;53.768;11.474;2023-05-14T02:24:25;10.60;1.00
3792;DHT22;1911;53.768;11.474;2023-05-14T02:26:51;10.60;1.00
3792;DHT22;1911;53.768;11.474;2023-05-14T02:29:17;10.50;1.00
3792;DHT22;1911;53.768;11.474;2023-05-14T02:31:42;10.50;1.00
3792;DHT22;1911;53.768;11.474;2023-05-14T02:34:08;10.50;1.00
3792;DHT22;1911;53.768;11.474;2023-05-14T02:36:34;10.50;1.00
3792;DHT22;1911;53.768;11.474;2023-05-14T02:39:00;10.40;1.00
3792;DHT22;1911;53.768;11.474;2023-05-14T02:41:26;10.30;1.00
3792;DHT22;1911;53.768;11.474;2023-05-14T02:43:52;10.40;1.00
3792;DHT22;1911;53.768;11.474;2023-05-14T02:46:17;10.40;1.00
3792;DHT22;1911;53.768;11.474;2023-05-14T02:48:43;10.40;1.00
3792;DHT22;1911;53.768;11.474;2023-05-14T02:51:09;10.40;1.00
3792;DHT22;1911;53.768;11.474;2023-05-14T02:53:35;10.40;1.00
3792;DHT22;1911;53.768;11.474;2023-05-14T02:56:00;10.40;1.00
3792;DHT22;1911;53.768;11.474;2023-05-14T02:58:26;10.40;1.00
3792;DHT22;1911;53.768;11.474;2023-05-14T03:00:51;10.40;1.00
3792;DHT22;1911;53.768;11.474;2023-05-14T03:03:18;10.40;1.00
3792;DHT22;1911;53.768;11.474;2023-05-14T03:05:43;10.30;1.00
3792;DHT22;1911;53.768;11.474;2023-05-14T03:08:09;10.30;1.00
3792;DHT22;1911;53.768;11.474;2023-05-14T03:10:35;10.30;1.00
3792;DHT22;1911;53.768;11.474;2023-05-14T03:13:00;10.20;1.00
3792;DHT22;1911;53.768;11.474;2023-05-14T03:15:26;10.30;1.00
3792;DHT22;1911;53.768;11.474;2023-05-14T03:17:51;10.30;1.00
3792;DHT22;1911;53.768;11.474;2023-05-14T03:20:17;10.30;1.00
3792;DHT22;1911;53.768;11.474;2023-05-14T03:22:43;10.30;1.00
3792;DHT22;1911;53.768;11.474;2023-05-14T03:25:08;10.20;1.00
3792;DHT22;1911;53.768;11.474;2023-05-14T03:27:34;10.20;5.20
3792;DHT22;1911;53.768;11.474;2023-05-14T03:30:00;10.10;46.40
3792;DHT22;1911;53.768;11.474;2023-05-14T03:32:25;10.20;74.30
3792;DHT22;1911;53.768;11.474;2023-05-14T03:34:51;10.20;87.20
3792;DHT22;1911;53.768;11.474;2023-05-14T03:37:17;10.10;91.00
3792;DHT22;1911;53.768;11.474;2023-05-14T03:39:42;10.10;99.60
3792;DHT22;1911;53.768;11.474;2023-05-14T03:42:08;10.10;99.90
3792;DHT22;1911;53.768;11.474;2023-05-14T03:44:33;10.10;99.90
3792;DHT22;1911;53.768;11.474;2023-05-14T03:46:59;10.10;99.90
3792;DHT22;1911;53.768;11.474;2023-05-14T03:49:24;10.20;99.90
3792;DHT22;1911;53.768;11.474;2023-05-14T03:51:50;10.20;96.90
3792;DHT22;1911;53.768;11.474;2023-05-14T03:54:15;10.30;90.60
3792;DHT22;1911;53.768;11.474;2023-05-14T03:56:41;10.40;85.00
3792;DHT22;1911;53.768;11.474;2023-05-14T03:59:07;10.50;71.90
3792;DHT22;1911;53.768;11.474;2023-05-14T04:01:32;10.60;54.70
3792;DHT22;1911;53.768;11.474;2023-05-14T04:03:58;10.70;36.90
3792;DHT22;1911;53.768;11.474;2023-05-14T04:06:24;10.80;41.70
3792;DHT22;1911;53.768;11.474;2023-05-14T04:08:49;10.90;33.70
3792;DHT22;1911;53.768;11.474;2023-05-14T04:11:15;11.10;21.10
3792;DHT22;1911;53.768;11.474;2023-05-14T04:13:41;11.30;6.50
3792;DHT22;1911;53.768;11.474;2023-05-14T04:16:06;11.40;1.00
3792;DHT22;1911;53.768;11.474;2023-05-14T04:18:32;11.50;1.00
3792;DHT22;1911;53.768;11.474;2023-05-14T04:21:00;11.60;1.00
3792;DHT22;1911;53.768;11.474;2023-05-14T04:23:25;11.70;1.00
3792;DHT22;1911;53.768;11.474;2023-05-14T04:25:51;11.80;1.00
3792;DHT22;1911;53.768;11.474;2023-05-14T04:28:17;11.90;1.00
3792;DHT22;1911;53.768;11.474;2023-05-14T04:30:42;12.10;1.00
3792;DHT22;1911;53.768;11.474;2023-05-14T04:33:08;12.20;1.00
3792;DHT22;1911;53.768;11.474;2023-05-14T04:35:34;12.30;1.00
3792;DHT22;1911;53.768;11.474;2023-05-14T04:38:00;12.30;1.00
3792;DHT22;1911;53.768;11.474;2023-05-14T04:40:25;12.40;1.00
3792;DHT22;1911;53.768;11.474;2023-05-14T04:42:51;12.30;1.00
3792;DHT22;1911;53.768;11.474;2023-05-14T04:45:17;12.40;1.00
3792;DHT22;1911;53.768;11.474;2023-05-14T04:47:42;12.50;1.00
3792;DHT22;1911;53.768;11.474;2023-05-14T04:50:09;12.70;1.00
3792;DHT22;1911;53.768;11.474;2023-05-14T04:52:35;12.80;1.00
3792;DHT22;1911;53.768;11.474;2023-05-14T04:55:00;12.90;1.00
3792;DHT22;1911;53.768;11.474;2023-05-14T04:57:26;13.00;1.00
3792;DHT22;1911;53.768;11.474;2023-05-14T04:59:52;13.10;1.00
3792;DHT22;1911;53.768;11.474;2023-05-14T05:02:17;13.10;1.00
3792;DHT22;1911;53.768;11.474;2023-05-14T05:04:44;13.00;1.00
3792;DHT22;1911;53.768;11.474;2023-05-14T05:07:09;12.90;1.00
3792;DHT22;1911;53.768;11.474;2023-05-14T05:09:35;13.00;1.00
3792;DHT22;1911;53.768;11.474;2023-05-14T05:12:00;13.00;1.00
3792;DHT22;1911;53.768;11.474;2023-05-14T05:14:26;13.00;1.00
3792;DHT22;1911;53.768;11.474;2023-05-14T05:16:52;13.20;1.00
3792;DHT22;1911;53.768;11.474;2023-05-14T05:19:17;13.30;1.00
3792;DHT22;1911;53.768;11.474;2023-05-14T05:21:43;13.50;1.00
3792;DHT22;1911;53.768;11.474;2023-05-14T05:24:08;14.00;1.00
3792;DHT22;1911;53.768;11.474;2023-05-14T05:26:34;14.10;1.00
3792;DHT22;1911;53.768;11.474;2023-05-14T05:29:03;14.30;1.00
3792;DHT22;1911;53.768;11.474;2023-05-14T05:31:29;14.30;1.00
3792;DHT22;1911;53.768;11.474;2023-05-14T05:33:55;14.30;1.00
3792;DHT22;1911;53.768;11.474;2023-05-14T05:36:21;14.20;1.00
3792;DHT22;1911;53.768;11.474;2023-05-14T05:38:47;14.10;1.00
3792;DHT22;1911;53.768;11.474;2023-05-14T05:41:12;14.10;1.00
3792;DHT22;1911;53.768;11.474;2023-05-14T05:43:38;14.10;1.00
3792;DHT22;1911;53.768;11.474;2023-05-14T05:46:03;14.20;1.00
3792;DHT22;1911;53.768;11.474;2023-05-14T05:48:29;14.30;1.00
3792;DHT22;1911;53.768;11.474;2023-05-14T05:50:55;14.40;1.00
3792;DHT22;1911;53.768;11.474;2023-05-14T05:53:20;14.40;1.00
3792;DHT22;1911;53.768;11.474;2023-05-14T05:55:46;14.50;1.00
3792;DHT22;1911;53.768;11.474;2023-05-14T05:58:12;14.60;1.00
3792;DHT22;1911;53.768;11.474;2023-05-14T06:00:40;14.80;1.00
3792;DHT22;1911;53.768;11.474;2023-05-14T06:03:05;14.80;99.90
3792;DHT22;1911;53.768;11.474;2023-05-14T06:05:31;14.80;99.90
3792;DHT22;1911;53.768;11.474;2023-05-14T06:07:57;14.80;99.90
3792;DHT22;1911;53.768;11.474;2023-05-14T06:10:22;15.10;99.90
3792;DHT22;1911;53.768;11.474;2023-05-14T06:12:48;15.50;99.90
3792;DHT22;1911;53.768;11.474;2023-05-14T06:15:14;15.70;99.90
3792;DHT22;1911;53.768;11.474;2023-05-14T06:17:39;15.50;99.90
3792;DHT22;1911;53.768;11.474;2023-05-14T06:20:06;15.40;99.90
3792;DHT22;1911;53.768;11.474;2023-05-14T06:22:35;15.90;99.90
3792;DHT22;1911;53.768;11.474;2023-05-14T06:25:01;16.70;99.90
3792;DHT22;1911;53.768;11.474;2023-05-14T06:27:26;17.20;1.00
3792;DHT22;1911;53.768;11.474;2023-05-14T06:30:10;17.30;1.00
3792;DHT22;1911;53.768;11.474;2023-05-14T06:32:36;17.40;1.00
3792;DHT22;1911;53.768;11.474;2023-05-14T06:35:02;17.80;1.00
3792;DHT22;1911;53.768;11.474;2023-05-14T06:37:28;18.40;99.90
3792;DHT22;1911;53.768;11.474;2023-05-14T06:39:54;18.70;99.90
3792;DHT22;1911;53.768;11.474;2023-05-14T06:42:22;18.80;99.90
3792;DHT22;1911;53.768;11.474;2023-05-14T06:44:47;19.30;51.90
3792;DHT22;1911;53.768;11.474;2023-05-14T06:59:09;25.90;99.90
3792;DHT22;1911;53.768;11.474;2023-05-14T07:01:34;27.40;99.90
3792;DHT22;1911;53.768;11.474;2023-05-14T07:04:00;28.10;99.90
3792;DHT22;1911;53.768;11.474;2023-05-14T07:06:25;28.60;99.90
3792;DHT22;1911;53.768;11.474;2023-05-14T07:08:51;28.80;99.90
3792;DHT22;1911;53.768;11.474;2023-05-14T07:11:17;29.30;99.90
3792;DHT22;1911;53.768;11.474;2023-05-14T07:13:43;29.80;99.90
3792;DHT22;1911;53.768;11.474;2023-05-14T07:16:09;29.50;99.90
3792;DHT22;1911;53.768;11.474;2023-05-14T07:18:35;29.60;99.90
3792;DHT22;1911;53.768;11.474;2023-05-14T07:21:01;29.50;99.90
3792;DHT22;1911;53.768;11.474;2023-05-14T07:23:26;29.50;99.90
3792;DHT22;1911;53.768;11.474;2023-05-14T07:25:52;29.70;99.90
3792;DHT22;1911;53.768;11.474;2023-05-14T07:28:17;29.80;99.90
3792;DHT22;1911;53.768;11.474;2023-05-14T07:30:43;29.70;99.90
3792;DHT22;1911;53.768;11.474;2023-05-14T07:33:09;29.50;99.90
3792;DHT22;1911;53.768;11.474;2023-05-14T07:35:34;29.20;99.90
3792;DHT22;1911;53.768;11.474;2023-05-14T07:38:00;29.00;99.90
3792;DHT22;1911;53.768;11.474;2023-05-14T07:40:25;29.30;99.90
3792;DHT22;1911;53.768;11.474;2023-05-14T07:42:51;29.40;99.90
3792;DHT22;1911;53.768;11.474;2023-05-14T07:45:17;29.10;99.90
3792;DHT22;1911;53.768;11.474;2023-05-14T07:47:42;29.30;99.90
3792;DHT22;1911;53.768;11.474;2023-05-14T07:50:08;29.40;99.90
3792;DHT22;1911;53.768;11.474;2023-05-14T07:52:34;29.30;99.90
3792;DHT22;1911;53.768;11.474;2023-05-14T07:55:01;29.00;99.90
3792;DHT22;1911;53.768;11.474;2023-05-14T07:57:27;29.20;99.90
3792;DHT22;1911;53.768;11.474;2023-05-14T07:59:53;29.20;99.90
3792;DHT22;1911;53.768;11.474;2023-05-14T08:02:18;29.20;99.90
3792;DHT22;1911;53.768;11.474;2023-05-14T08:04:44;29.20;99.90
3792;DHT22;1911;53.768;11.474;2023-05-14T08:07:10;29.00;99.90
3792;DHT22;1911;53.768;11.474;2023-05-14T08:09:35;29.00;99.90
3792;DHT22;1911;53.768;11.474;2023-05-14T08:12:01;28.70;99.90
3792;DHT22;1911;53.768;11.474;2023-05-14T08:14:27;28.90;99.90
3792;DHT22;1911;53.768;11.474;2023-05-14T08:16:53;29.30;99.90
3792;DHT22;1911;53.768;11.474;2023-05-14T08:19:18;29.70;99.90
3792;DHT22;1911;53.768;11.474;2023-05-14T08:21:44;29.10;99.90
3792;DHT22;1911;53.768;11.474;2023-05-14T08:24:09;28.80;99.90
3792;DHT22;1911;53.768;11.474;2023-05-14T08:26:35;28.90;99.90
3792;DHT22;1911;53.768;11.474;2023-05-14T08:29:02;28.90;99.90
3792;DHT22;1911;53.768;11.474;2023-05-14T08:31:27;29.00;99.90
3792;DHT22;1911;53.768;11.474;2023-05-14T08:33:53;28.90;99.90
3792;DHT22;1911;53.768;11.474;2023-05-14T08:36:18;28.20;99.90
3792;DHT22;1911;53.768;11.474;2023-05-14T08:38:44;27.20;44.20
3792;DHT22;1911;53.768;11.474;2023-05-14T08:41:10;26.20;1.00
3792;DHT22;1911;53.768;11.474;2023-05-14T08:43:44;25.40;1.00
3792;DHT22;1911;53.768;11.474;2023-05-14T08:46:13;24.70;1.00
3792;DHT22;1911;53.768;11.474;2023-05-14T08:48:41;24.20;1.00
3792;DHT22;1911;53.768;11.474;2023-05-14T08:51:08;23.70;1.00
3792;DHT22;1911;53.768;11.474;2023-05-14T08:53:34;23.80;1.00
3792;DHT22;1911;53.768;11.474;2023-05-14T08:56:03;23.80;1.00
3792;DHT22;1911;53.768;11.474;2023-05-14T08:58:29;23.80;1.00
3792;DHT22;1911;53.768;11.474;2023-05-14T09:00:55;23.90;1.00
3792;DHT22;1911;53.768;11.474;2023-05-14T09:03:21;24.10;1.00
3792;DHT22;1911;53.768;11.474;2023-05-14T09:05:49;24.20;1.00
3792;DHT22;1911;53.768;11.474;2023-05-14T09:08:16;24.40;7.60
3792;DHT22;1911;53.768;11.474;2023-05-14T09:10:41;24.50;9.20
3792;DHT22;1911;53.768;11.474;2023-05-14T09:13:07;24.50;1.00
3792;DHT22;1911;53.768;11.474;2023-05-14T09:15:36;24.60;3.40
3792;DHT22;1911;53.768;11.474;2023-05-14T09:18:04;24.50;1.00
3792;DHT22;1911;53.768;11.474;2023-05-14T09:20:30;24.30;1.00
3792;DHT22;1911;53.768;11.474;2023-05-14T09:22:57;24.30;1.00
3792;DHT22;1911;53.768;11.474;2023-05-14T09:25:30;24.50;1.00
3792;DHT22;1911;53.768;11.474;2023-05-14T09:27:56;24.30;1.00
3792;DHT22;1911;53.768;11.474;2023-05-14T09:30:23;24.60;2.40
3792;DHT22;1911;53.768;11.474;2023-05-14T09:32:52;24.80;6.00
3792;DHT22;1911;53.768;11.474;2023-05-14T09:35:23;25.00;14.80
3792;DHT22;1911;53.768;11.474;2023-05-14T09:37:51;25.10;22.10
3792;DHT22;1911;53.768;11.474;2023-05-14T09:40:18;24.40;1.00
3792;DHT22;1911;53.768;11.474;2023-05-14T09:42:45;24.50;17.20
3792;DHT22;1911;53.768;11.474;2023-05-14T09:45:11;24.70;1.00
3792;DHT22;1911;53.768;11.474;2023-05-14T09:47:37;24.90;62.50
3792;DHT22;1911;53.768;11.474;2023-05-14T09:50:04;24.70;46.50
3792;DHT22;1911;53.768;11.474;2023-05-14T09:52:30;24.60;50.60
3792;DHT22;1911;53.768;11.474;2023-05-14T09:54:55;24.70;19.50
3792;DHT22;1911;53.768;11.474;2023-05-14T09:57:21;24.80;37.70
3792;DHT22;1911;53.768;11.474;2023-05-14T09:59:47;24.80;11.30
3792;DHT22;1911;53.768;11.474;2023-05-14T10:02:32;24.90;23.50
3792;DHT22;1911;53.768;11.474;2023-05-14T10:05:03;24.80;20.20
3792;DHT22;1911;53.768;11.474;2023-05-14T10:07:46;24.50;6.80
3792;DHT22;1911;53.768;11.474;2023-05-14T10:10:15;24.30;1.00
3792;DHT22;1911;53.768;11.474;2023-05-14T10:12:48;24.10;1.00
3792;DHT22;1911;53.768;11.474;2023-05-14T10:15:19;23.80;1.00
3792;DHT22;1911;53.768;11.474;2023-05-14T10:17:55;23.70;1.00
3792;DHT22;1911;53.768;11.474;2023-05-14T10:20:23;23.80;1.00
3792;DHT22;1911;53.768;11.474;2023-05-14T10:22:49;23.90;1.00
3792;DHT22;1911;53.768;11.474;2023-05-14T10:25:15;24.00;1.00
3792;DHT22;1911;53.768;11.474;2023-05-14T10:27:41;24.30;1.00
3792;DHT22;1911;53.768;11.474;2023-05-14T10:30:10;24.30;1.00
3792;DHT22;1911;53.768;11.474;2023-05-14T10:32:39;24.30;1.00
3792;DHT22;1911;53.768;11.474;2023-05-14T10:35:17;24.40;1.00
3792;DHT22;1911;53.768;11.474;2023-05-14T10:37:43;24.60;1.50
3792;DHT22;1911;53.768;11.474;2023-05-14T10:40:11;24.80;1.00
3792;DHT22;1911;53.768;11.474;2023-05-14T10:42:38;24.90;1.00
3792;DHT22;1911;53.768;11.474;2023-05-14T10:45:12;24.80;1.00
3792;DHT22;1911;53.768;11.474;2023-05-14T10:47:43;24.80;1.00
3792;DHT22;1911;53.768;11.474;2023-05-14T10:50:11;25.20;1.00
3792;DHT22;1911;53.768;11.474;2023-05-14T10:52:37;25.60;19.30
3792;DHT22;1911;53.768;11.474;2023-05-14T10:55:05;25.40;12.20
3792;DHT22;1911;53.768;11.474;2023-05-14T10:57:36;25.30;1.00
3792;DHT22;1911;53.768;11.474;2023-05-14T11:00:02;25.00;1.00
3792;DHT22;1911;53.768;11.474;2023-05-14T11:02:36;24.80;1.00
3792;DHT22;1911;53.768;11.474;2023-05-14T11:05:04;24.50;1.00
3792;DHT22;1911;53.768;11.474;2023-05-14T11:07:31;24.10;1.00
3792;DHT22;1911;53.768;11.474;2023-05-14T11:10:00;24.30;1.00
3792;DHT22;1911;53.768;11.474;2023-05-14T11:12:26;23.70;1.00
3792;DHT22;1911;53.768;11.474;2023-05-14T11:14:52;23.60;1.00
3792;DHT22;1911;53.768;11.474;2023-05-14T11:17:19;24.00;1.00
3792;DHT22;1911;53.768;11.474;2023-05-14T11:19:44;24.20;1.00
3792;DHT22;1911;53.768;11.474;2023-05-14T11:22:10;24.40;1.00
3792;DHT22;1911;53.768;11.474;2023-05-14T11:24:39;24.20;1.00
3792;DHT22;1911;53.768;11.474;2023-05-14T11:27:09;24.10;1.00
3792;DHT22;1911;53.768;11.474;2023-05-14T11:29:36;24.20;1.00
3792;DHT22;1911;53.768;11.474;2023-05-14T11:32:04;24.10;1.00
3792;DHT22;1911;53.768;11.474;2023-05-14T11:34:30;24.00;1.00
3792;DHT22;1911;53.768;11.474;2023-05-14T11:36:56;24.10;1.00
3792;DHT22;1911;53.768;11.474;2023-05-14T11:39:22;24.10;1.00
3792;DHT22;1911;53.768;11.474;2023-05-14T11:41:47;24.10;1.00
3792;DHT22;1911;53.768;11.474;2023-05-14T11:44:13;23.90;1.00
3792;DHT22;1911;53.768;11.474;2023-05-14T11:46:39;24.00;1.00
3792;DHT22;1911;53.768;11.474;2023-05-14T11:49:04;24.20;1.00
3792;DHT22;1911;53.768;11.474;2023-05-14T11:51:31;24.10;1.00
3792;DHT22;1911;53.768;11.474;2023-05-14T11:53:56;23.90;1.00
3792;DHT22;1911;53.768;11.474;2023-05-14T11:56:23;23.70;1.00
3792;DHT22;1911;53.768;11.474;2023-05-14T11:58:54;23.50;1.00
3792;DHT22;1911;53.768;11.474;2023-05-14T12:01:19;23.40;1.00
3792;DHT22;1911;53.768;11.474;2023-05-14T12:03:45;23.10;1.00
3792;DHT22;1911;53.768;11.474;2023-05-14T12:06:11;22.90;1.00
3792;DHT22;1911;53.768;11.474;2023-05-14T12:08:37;22.80;1.00
3792;DHT22;1911;53.768;11.474;2023-05-14T12:11:02;22.50;1.00
3792;DHT22;1911;53.768;11.474;2023-05-14T12:13:29;22.10;1.00
3792;DHT22;1911;53.768;11.474;2023-05-14T12:15:57;21.90;1.00
3792;DHT22;1911;53.768;11.474;2023-05-14T12:18:30;21.70;1.00
3792;DHT22;1911;53.768;11.474;2023-05-14T12:21:01;21.30;1.00
3792;DHT22;1911;53.768;11.474;2023-05-14T12:23:28;21.40;1.00
3792;DHT22;1911;53.768;11.474;2023-05-14T12:25:54;21.30;1.00
3792;DHT22;1911;53.768;11.474;2023-05-14T12:28:25;21.70;1.00
3792;DHT22;1911;53.768;11.474;2023-05-14T12:30:55;21.60;1.00
3792;DHT22;1911;53.768;11.474;2023-05-14T12:33:21;21.90;1.00
3792;DHT22;1911;53.768;11.474;2023-05-14T12:35:48;21.80;1.00
3792;DHT22;1911;53.768;11.474;2023-05-14T12:38:14;21.70;1.00
3792;DHT22;1911;53.768;11.474;2023-05-14T12:40:39;21.50;1.00
3792;DHT22;1911;53.768;11.474;2023-05-14T12:43:05;21.40;1.00
3792;DHT22;1911;53.768;11.474;2023-05-14T12:45:30;21.90;1.00
3792;DHT22;1911;53.768;11.474;2023-05-14T12:47:56;22.30;1.00
3792;DHT22;1911;53.768;11.474;2023-05-14T12:50:22;22.50;1.00
3792;DHT22;1911;53.768;11.474;2023-05-14T12:52:47;22.60;1.00
3792;DHT22;1911;53.768;11.474;2023-05-14T12:55:13;22.60;1.00
3792;DHT22;1911;53.768;11.474;2023-05-14T12:57:38;22.30;1.00
3792;DHT22;1911;53.768;11.474;2023-05-14T13:00:04;22.50;1.00
3792;DHT22;1911;53.768;11.474;2023-05-14T13:02:31;22.60;1.00
3792;DHT22;1911;53.768;11.474;2023-05-14T13:04:56;22.70;1.00
3792;DHT22;1911;53.768;11.474;2023-05-14T13:07:22;22.50;1.00
3792;DHT22;1911;53.768;11.474;2023-05-14T13:09:48;22.50;1.00
3792;DHT22;1911;53.768;11.474;2023-05-14T13:12:13;22.00;1.00
3792;DHT22;1911;53.768;11.474;2023-05-14T13:14:39;22.20;1.00
3792;DHT22;1911;53.768;11.474;2023-05-14T13:17:04;22.00;1.00
3792;DHT22;1911;53.768;11.474;2023-05-14T13:19:32;22.50;1.00
3792;DHT22;1911;53.768;11.474;2023-05-14T13:21:57;22.80;1.00
3792;DHT22;1911;53.768;11.474;2023-05-14T13:24:23;22.80;1.00
3792;DHT22;1911;53.768;11.474;2023-05-14T13:26:49;22.70;1.00
3792;DHT22;1911;53.768;11.474;2023-05-14T13:29:14;22.20;1.00
3792;DHT22;1911;53.768;11.474;2023-05-14T13:31:40;22.00;1.00
3792;DHT22;1911;53.768;11.474;2023-05-14T13:34:06;22.00;1.00
3792;DHT22;1911;53.768;11.474;2023-05-14T13:36:32;21.90;1.00
3792;DHT22;1911;53.768;11.474;2023-05-14T13:38:57;21.90;1.00
3792;DHT22;1911;53.768;11.474;2023-05-14T13:41:24;22.00;1.00
3792;DHT22;1911;53.768;11.474;2023-05-14T13:43:50;22.20;1.00
3792;DHT22;1911;53.768;11.474;2023-05-14T13:46:16;22.30;1.00
3792;DHT22;1911;53.768;11.474;2023-05-14T13:48:41;22.20;1.00
3792;DHT22;1911;53.768;11.474;2023-05-14T13:51:07;22.20;1.00
3792;DHT22;1911;53.768;11.474;2023-05-14T13:53:32;22.20;1.00
3792;DHT22;1911;53.768;11.474;2023-05-14T13:55:58;22.30;1.00
3792;DHT22;1911;53.768;11.474;2023-05-14T13:58:26;22.30;1.00
3792;DHT22;1911;53.768;11.474;2023-05-14T14:00:52;22.40;1.00
3792;DHT22;1911;53.768;11.474;2023-05-14T14:03:17;22.60;1.00
3792;DHT22;1911;53.768;11.474;2023-05-14T14:05:43;22.90;1.00
3792;DHT22;1911;53.768;11.474;2023-05-14T14:08:09;23.00;1.00
3792;DHT22;1911;53.768;11.474;2023-05-14T14:10:34;23.20;1.00
3792;DHT22;1911;53.768;11.474;2023-05-14T14:13:00;23.30;1.00
3792;DHT22;1911;53.768;11.474;2023-05-14T14:15:26;23.20;1.00
3792;DHT22;1911;53.768;11.474;2023-05-14T14:17:52;23.20;1.00
3792;DHT22;1911;53.768;11.474;2023-05-14T14:20:17;23.00;1.00
3792;DHT22;1911;53.768;11.474;2023-05-14T14:22:43;23.00;1.00
3792;DHT22;1911;53.768;11.474;2023-05-14T14:25:09;23.00;1.00
3792;DHT22;1911;53.768;11.474;2023-05-14T14:27:37;22.80;1.00
3792;DHT22;1911;53.768;11.474;2023-05-14T14:30:07;22.60;1.00
3792;DHT22;1911;53.768;11.474;2023-05-14T14:32:34;22.40;1.00
3792;DHT22;1911;53.768;11.474;2023-05-14T14:34:59;22.10;1.00
3792;DHT22;1911;53.768;11.474;2023-05-14T14:37:25;22.20;1.00
3792;DHT22;1911;53.768;11.474;2023-05-14T14:39:51;22.10;1.00
3792;DHT22;1911;53.768;11.474;2023-05-14T14:42:16;22.00;1.00
3792;DHT22;1911;53.768;11.474;2023-05-14T14:44:42;22.00;1.00
3792;DHT22;1911;53.768;11.474;2023-05-14T14:47:07;22.00;1.00
3792;DHT22;1911;53.768;11.474;2023-05-14T14:49:33;22.10;1.00
3792;DHT22;1911;53.768;11.474;2023-05-14T14:51:59;22.10;1.00
3792;DHT22;1911;53.768;11.474;2023-05-14T14:54:24;22.20;1.00
3792;DHT22;1911;53.768;11.474;2023-05-14T14:56:50;22.20;1.00
3792;DHT22;1911;53.768;11.474;2023-05-14T14:59:17;22.30;1.00
3792;DHT22;1911;53.768;11.474;2023-05-14T15:01:42;22.20;1.00
3792;DHT22;1911;53.768;11.474;2023-05-14T15:04:08;22.00;1.00
3792;DHT22;1911;53.768;11.474;2023-05-14T15:06:34;21.90;1.00
3792;DHT22;1911;53.768;11.474;2023-05-14T15:08:59;21.90;1.00
3792;DHT22;1911;53.768;11.474;2023-05-14T15:11:25;22.20;1.00
3792;DHT22;1911;53.768;11.474;2023-05-14T15:13:50;22.20;1.00
3792;DHT22;1911;53.768;11.474;2023-05-14T15:16:16;22.10;1.00
3792;DHT22;1911;53.768;11.474;2023-05-14T15:18:42;22.00;1.00
3792;DHT22;1911;53.768;11.474;2023-05-14T15:21:07;21.80;1.00
3792;DHT22;1911;53.768;11.474;2023-05-14T15:23:33;21.90;1.00
3792;DHT22;1911;53.768;11.474;2023-05-14T15:25:58;21.70;1.00
3792;DHT22;1911;53.768;11.474;2023-05-14T15:28:24;21.50;1.00
3792;DHT22;1911;53.768;11.474;2023-05-14T15:30:49;21.50;1.00
3792;DHT22;1911;53.768;11.474;2023-05-14T15:33:15;21.30;1.00
3792;DHT22;1911;53.768;11.474;2023-05-14T15:35:43;21.20;1.00
3792;DHT22;1911;53.768;11.474;2023-05-14T15:38:09;21.00;1.00
3792;DHT22;1911;53.768;11.474;2023-05-14T15:40:35;20.70;1.00
3792;DHT22;1911;53.768;11.474;2023-05-14T15:43:00;20.40;1.00
3792;DHT22;1911;53.768;11.474;2023-05-14T15:45:26;20.10;1.00
3792;DHT22;1911;53.768;11.474;2023-05-14T15:47:52;19.80;1.00
3792;DHT22;1911;53.768;11.474;2023-05-14T15:50:18;19.70;1.00
3792;DHT22;1911;53.768;11.474;2023-05-14T15:52:44;19.70;1.00
3792;DHT22;1911;53.768;11.474;2023-05-14T15:55:10;19.80;1.00
3792;DHT22;1911;53.768;11.474;2023-05-14T15:57:36;20.10;1.00
3792;DHT22;1911;53.768;11.474;2023-05-14T16:00:02;20.30;1.00
3792;DHT22;1911;53.768;11.474;2023-05-14T16:02:37;20.50;1.00
3792;DHT22;1911;53.768;11.474;2023-05-14T16:05:03;20.60;1.00
3792;DHT22;1911;53.768;11.474;2023-05-14T16:07:29;20.60;1.00
3792;DHT22;1911;53.768;11.474;2023-05-14T16:09:54;20.60;1.00
3792;DHT22;1911;53.768;11.474;2023-05-14T16:12:20;20.50;1.00